Terminal Aerodrome Forecast
Issued by NWS Tampa Bay Area, FL

Home | Current Version | Previous Version | Text Only | Print | Product List | Glossary On
Versions: 1 2 3 4 5 6 7 8 9 10 11 12 13 14 15 16 17 18 19 20 21 22 23 24 25 26 27 28 29
250
FTUS42 KTBW 200615 AAA
TAFTPA
TAF AMD
KTPA 200615Z 2006/2106 VRB03KT 4SM BR BKN005
     FM201100 07004KT 3SM BR SCT005
      TEMPO 2011/2013 1SM BR
     FM201400 10006KT P6SM FEW015
     FM202000 17005KT P6SM FEW030
     FM202200 22005KT P6SM SCT050
     FM210000 VRB04KT P6SM SCT050=

USA.gov is the U.S. government's official web portal to all federal, state and local government web resources and services.